Terminal Aerodrome Forecast
Issued by NWS Kansas City/Pleasant Hill, MO

Home | Current Version | Previous Version | Text Only | Print | Product List | Glossary On
Versions: 1 2 3 4 5 6 7 8 9 10 11 12 13 14 15 16 17 18 19 20 21 22
000
FTUS43 KEAX 302300
TAFMCI
TAF
KMCI 302320Z 0100/0124 08007KT P6SM BKN120
     FM010500 12009KT P6SM VCTS BKN100CB
      TEMPO 0106/0110 5SM -TSRA BR BKN050CB
     FM011300 16010KT P6SM SCT050 BKN200
     FM012100 11008KT P6SM VCTS BKN100CB=

USA.gov is the U.S. government's official web portal to all federal, state and local government web resources and services.